Date,TemperatureHighF,TemperatureAvgF,TemperatureLowF,DewpointHighF,DewpointAvgF,DewpointLowF,HumidityHigh,HumidityAvg,HumidityLow,PressureMaxIn,PressureMinIn,WindSpeedMaxMPH,WindSpeedAvgMPH,GustSpeedMaxMPH,PrecipitationSumIn
2014-1-1,22.3,6.2,-6.0,-9.9,-24.9,-32.8,33,23,10,30.32,30.06,0,0,0,0.00
2014-1-2,11.1,5.5,-1.1,-16.4,-23.9,-32.0,29,23,16,30.31,29.87,0,0,0,0.00
2014-1-3,6.6,0.6,-13.4,-23.1,-35.6,-54.2,27,17,10,30.30,29.77,0,0,0,0.01
2014-1-4,19.4,-1.9,-17.7,-27.8,-42.1,-57.4,21,12,10,30.38,30.15,0,0,0,0.00
2014-1-5,32.7,14.5,-4.7,18.1,-19.7,-42.7,61,22,10,30.25,29.92,0,0,2,0.07
2014-1-6,37.4,31.6,21.2,29.6,-3.2,-18.0,83,28,10,29.91,29.24,4,0,14,0.07
2014-1-7,22.5,8.5,-1.3,-5.5,-32.1,-41.4,29,13,10,30.05,29.40,6,2,21,0.00
2014-1-8,19.0,4.7,-6.9,-25.4,-33.0,-42.3,31,16,10,30.35,30.05,4,1,14,0.00
2014-1-9,24.6,6.4,-3.6,-24.0,-36.1,-46.3,17,12,10,30.56,30.31,5,1,17,0.00
2014-1-10,28.0,12.8,-3.8,-20.8,-33.0,-46.4,16,10,10,30.52,30.21,1,0,3,0.00
2014-1-11,34.2,30.2,21.6,7.8,-14.2,-26.5,33,15,10,30.22,29.15,1,0,3,0.52
2014-1-12,44.1,37.8,32.9,31.1,1.4,-17.5,76,23,10,29.87,29.18,5,2,22,0.01
2014-1-13,45.5,34.0,23.0,15.1,3.8,-12.3,48,30,10,30.04,29.81,3,0,9,0.00
2014-1-14,37.4,34.1,30.6,19.0,2.2,-17.2,49,29,10,29.81,29.58,1,0,4,0.41
2014-1-15,41.9,32.0,26.1,30.2,-12.4,-23.0,68,16,10,29.94,29.69,3,0,10,0.01
2014-1-16,37.0,32.0,26.1,14.9,-13.0,-23.0,41,15,10,29.88,29.81,2,0,6,0.00
2014-1-17,41.4,31.9,23.4,19.4,-12.7,-25.1,43,15,10,29.89,29.82,3,0,9,0.04
2014-1-18,33.1,27.4,21.0,9.7,-16.7,-26.9,37,15,10,29.87,29.62,2,0,8,0.01
2014-1-19,34.2,28.0,22.6,12.0,-8.4,-25.6,41,22,10,29.66,29.42,2,0,10,0.00
2014-1-20,40.3,27.5,7.0,8.9,-1.7,-37.5,34,28,10,29.85,29.41,7,2,17,0.02
2014-1-21,13.3,6.7,0.5,-30.2,-35.4,-41.4,20,12,10,30.01,29.84,4,1,11,0.00
2014-1-22,14.2,3.7,-2.7,-32.2,-38.9,-45.6,16,11,10,29.89,29.62,6,2,19,0.01
2014-1-23,17.1,3.7,-6.3,-30.0,-36.5,-43.6,21,13,10,30.05,29.83,4,1,18,0.00
2014-1-24,14.2,2.8,-8.1,-32.2,-41.2,-49.8,11,10,10,30.16,29.90,4,1,21,0.00
2014-1-25,31.6,18.9,6.4,-16.4,-27.8,-38.3,14,10,10,29.90,29.21,6,1,20,0.00
2014-1-26,20.1,13.1,5.7,-24.2,-32.7,-38.9,12,10,10,29.78,29.23,6,2,22,0.00
2014-1-27,33.4,20.9,14.0,-17.2,-27.0,-32.4,10,10,10,29.90,29.43,6,2,23,0.00
2014-1-28,18.1,7.9,-1.7,-29.1,-37.2,-44.7,10,10,10,30.19,29.90,5,1,17,0.00
2014-1-29,23.2,10.0,-2.6,-25.2,-35.5,-45.4,10,10,10,30.14,29.84,5,1,14,0.00
2014-1-30,27.1,10.5,-2.7,-22.1,-35.1,-45.6,10,10,10,30.33,30.06,2,1,9,0.00
2014-1-31,40.1,25.0,12.9,-12.0,-23.8,-33.2,10,10,10,30.11,29.92,4,1,14,0.00
2014-2-1,44.2,29.7,16.3,-8.8,-20.2,-30.5,10,10,10,30.28,29.94,2,0,8,0.00
2014-2-2,39.2,33.8,28.0,-0.1,-12.8,-21.4,21,13,10,30.04,29.79,2,0,8,0.02
2014-2-3,36.7,28.6,14.0,-8.2,-20.6,-30.7,15,10,10,30.23,30.03,4,1,15,0.01
2014-2-4,34.2,20.3,6.3,-16.6,-27.4,-38.5,12,10,10,30.39,30.23,2,0,8,0.00
2014-2-5,25.2,22.1,13.1,-23.7,-26.1,-33.1,10,10,10,30.28,29.68,7,2,21,0.00
2014-2-6,26.6,12.4,-0.9,-22.5,-33.7,-44.1,10,10,10,30.19,29.89,3,1,12,0.01
2014-2-7,28.8,9.7,-9.2,-20.8,-35.8,-50.7,10,10,10,30.14,30.03,4,1,101,0.01
2014-2-8,26.8,14.1,-2.0,-22.4,-32.3,-45.0,10,10,10,30.20,30.06,4,1,14,0.00
2014-2-9,30.7,20.7,12.4,-19.3,-27.1,-33.7,10,10,10,30.11,29.86,2,0,8,0.00
2014-2-10,24.3,14.8,-2.9,-24.4,-31.7,-45.7,10,10,10,30.12,29.82,6,1,18,0.00
2014-2-11,21.6,6.0,-10.5,-26.5,-38.7,-51.7,10,10,10,30.37,30.12,5,2,21,0.00
2014-2-12,28.4,8.5,-6.7,-21.1,-36.7,-48.7,10,10,10,30.48,30.33,4,1,10,0.00
2014-2-13,32.7,18.8,2.7,-17.8,-28.6,-41.3,10,10,10,30.33,29.08,7,2,18,0.00
2014-2-14,33.1,30.0,23.2,18.8,-19.0,-25.2,62,11,10,29.63,28.83,6,1,15,0.01
2014-2-15,37.4,26.6,16.2,-9.0,-21.8,-30.7,16,10,10,29.78,29.49,1,0,4,0.04
2014-2-16,27.7,19.6,10.8,-18.2,-27.9,-34.9,12,10,10,29.92,29.50,8,3,27,0.00
2014-2-17,22.1,10.5,-2.7,-26.0,-35.1,-45.6,10,10,10,30.30,29.92,7,2,23,0.00
2014-2-18,21.9,11.3,-6.2,-26.2,-34.6,-48.3,10,10,10,30.29,29.92,3,1,9,0.00
2014-2-19,32.4,21.5,5.5,-18.0,-26.5,-39.0,10,10,10,30.02,29.71,2,0,5,0.00
2014-2-20,48.7,30.4,16.0,3.6,-19.0,-31.0,24,10,10,30.15,29.76,15,0,15,0.13
2014-2-21,52.3,34.1,27.5,-2.6,-16.7,-21.8,10,10,10,30.09,29.65,3,1,12,0.57
2014-2-22,48.6,32.8,22.3,20.3,-12.8,-25.9,45,14,10,29.85,29.73,6,1,19,0.01
2014-2-23,50.2,36.0,25.9,-3.2,-10.7,-23.1,22,13,10,29.89,29.71,3,1,13,0.00
2014-2-24,33.6,26.0,14.4,-12.3,-22.5,-31.3,15,10,10,29.86,29.68,6,2,25,0.00
2014-2-25,27.7,15.2,5.5,-22.0,-27.2,-37.1,21,13,10,29.89,29.79,5,1,17,0.00
2014-2-26,30.4,10.1,-3.3,-19.6,-35.4,-46.0,11,10,10,29.85,29.67,6,1,16,0.00
2014-2-27,29.5,13.4,0.9,-20.3,-32.9,-42.7,10,10,10,29.79,29.50,24,2,24,0.00
2014-2-28,21.6,8.3,-2.9,-26.5,-36.9,-45.7,10,10,10,30.36,29.79,5,2,17,0.00
2014-3-1,31.5,15.0,-6.3,-18.7,-31.6,-48.4,10,10,10,30.38,29.99,4,1,14,0.00
2014-3-2,34.2,25.2,14.5,-16.6,-23.6,-32.0,10,10,10,30.00,29.92,4,1,14,0.00
2014-3-3,22.5,12.4,-0.6,-25.8,-33.6,-43.8,10,10,10,30.22,29.97,5,2,16,0.00
2014-3-4,32.4,12.6,-9.0,-18.0,-33.5,-50.5,10,10,10,30.29,30.14,2,1,10,0.00
2014-3-5,29.8,18.3,7.5,-20.0,-29.0,-37.5,10,10,10,30.45,30.18,4,1,11,0.00
2014-3-6,30.7,10.8,-8.5,-19.3,-34.9,-50.1,10,10,10,30.57,30.44,3,1,7,0.01
2014-3-7,37.9,15.4,-6.7,-13.7,-31.4,-48.7,10,10,10,30.44,29.91,4,1,13,0.00
2014-3-8,50.0,27.9,8.2,-4.4,-21.6,-36.9,10,10,10,29.91,29.65,6,2,21,0.00
2014-3-9,36.3,25.6,15.8,-15.0,-23.3,-31.0,10,10,10,29.89,29.80,6,2,21,0.00
2014-3-10,43.5,31.1,20.8,-9.4,-19.0,-27.0,10,10,10,29.81,29.56,2,0,7,0.04
2014-3-11,54.1,37.1,27.0,-1.2,-14.3,-22.3,10,10,10,29.68,29.43,4,1,18,0.07
2014-3-12,35.6,32.7,27.7,-15.5,-17.8,-21.7,10,10,10,29.68,29.05,6,1,19,0.76
2014-3-13,30.7,16.0,4.1,-19.3,-30.9,-40.2,10,10,10,29.84,29.03,0,0,0,0.00
2014-3-14,37.2,20.4,0.9,-14.3,-27.4,-42.7,10,10,10,30.05,29.79,4,1,11,0.02
2014-3-15,52.5,36.3,25.3,-2.4,-15.0,-23.5,10,10,10,29.79,29.58,5,1,14,0.00
2014-3-16,33.8,22.5,10.9,-16.9,-25.7,-34.8,10,10,10,30.17,29.78,6,4,24,0.00
2014-3-17,28.2,14.7,5.9,-21.3,-31.8,-38.7,10,10,10,30.15,29.98,5,2,17,0.00
2014-3-18,38.8,17.9,-0.2,-13.0,-29.4,-43.6,10,10,10,30.28,30.09,2,1,8,0.00
2014-3-19,43.5,27.9,10.6,-9.4,-21.5,-35.1,10,10,10,30.33,29.95,4,1,14,0.00
2014-3-20,46.9,36.5,30.6,-6.7,-14.8,-19.4,10,10,10,29.97,29.54,4,1,13,0.09
2014-3-21,41.0,32.4,19.4,-11.3,-18.0,-28.2,10,10,10,29.94,29.62,5,2,25,0.00
2014-3-22,44.1,29.2,14.7,-9.0,-20.5,-31.8,10,10,10,29.97,29.60,4,1,14,0.01
2014-3-23,34.7,26.5,12.2,-16.2,-22.6,-33.8,10,10,10,30.07,29.84,7,3,21,0.00
2014-3-24,28.0,15.4,5.9,-21.4,-31.3,-38.7,10,10,10,30.09,29.98,8,2,21,0.00
2014-3-25,39.4,17.7,-2.7,-12.6,-29.5,-45.6,10,10,10,30.07,29.91,4,1,11,0.00
2014-3-26,32.7,24.7,17.2,-17.8,-24.0,-29.8,10,10,10,29.95,29.62,11,4,36,0.00
2014-3-27,45.7,26.0,9.3,-7.7,-23.0,-36.1,10,10,10,30.24,29.94,5,2,17,0.00
2014-3-28,43.7,36.3,31.5,-9.3,-15.0,-18.7,10,10,10,30.12,29.86,4,0,14,0.20
2014-3-29,52.9,41.6,32.4,-2.2,-10.7,-18.0,15,10,10,30.21,29.95,4,1,14,0.13
2014-3-30,41.0,36.6,34.2,-5.5,-14.1,-16.6,14,10,10,30.02,29.66,10,4,26,0.83
2014-3-31,46.6,36.6,31.5,-7.0,-14.7,-18.7,10,10,10,30.01,29.69,7,3,21,0.15
2014-4-1,54.1,38.6,26.2,-1.2,-13.2,-23.0,10,10,10,30.06,29.95,4,1,13,0.00
2014-4-2,54.9,38.4,24.3,-0.6,-13.4,-24.4,10,10,10,30.07,29.94,2,1,10,0.00
2014-4-3,47.7,34.4,22.5,-6.2,-16.5,-25.8,10,10,10,30.10,29.99,6,2,17,0.00
2014-4-4,49.5,33.6,20.8,-4.8,-17.1,-27.0,10,10,10,30.12,29.89,6,2,15,0.25
2014-4-5,50.5,38.9,33.3,17.5,-11.7,-17.3,30,11,10,29.89,29.63,5,2,14,0.13
2014-4-6,53.8,38.9,28.2,-1.5,-13.0,-21.3,10,10,10,30.12,29.85,7,2,21,0.00
2014-4-7,60.4,41.6,24.1,3.6,-10.9,-24.5,10,10,10,30.18,29.89,4,1,15,0.02
2014-4-8,56.5,44.9,37.9,19.3,-3.2,-12.7,26,13,10,29.89,29.25,6,2,21,0.39
2014-4-9,48.9,40.6,26.1,3.4,-8.5,-22.8,21,12,10,29.91,29.44,6,3,21,0.00
2014-4-10,64.8,42.2,19.8,7.0,-8.4,-27.9,20,11,10,30.07,29.87,5,2,20,0.00
2014-4-11,72.3,53.3,41.0,12.7,-1.3,-11.3,15,10,10,30.00,29.84,4,1,15,0.01
2014-4-12,67.8,47.4,29.5,33.6,-4.4,-20.3,51,12,10,30.18,29.96,4,1,17,0.01
2014-4-13,45.7,40.3,36.7,1.5,-10.1,-14.7,16,11,10,30.26,29.99,7,2,15,0.19
2014-4-14,78.6,56.4,35.1,32.8,6.9,-16.0,48,15,10,30.00,29.74,8,3,28,0.00
2014-4-15,65.5,58.9,36.7,33.3,14.4,-8.3,49,19,10,29.80,29.44,6,3,20,0.51
2014-4-16,39.7,30.1,21.6,6.3,-11.4,-22.1,39,17,10,30.57,29.71,7,2,20,0.08
2014-4-17,51.1,32.0,16.3,-0.7,-10.7,-27.6,31,17,10,30.77,30.57,6,2,15,0.00
2014-4-18,55.0,36.1,18.5,-0.1,-10.6,-28.9,27,13,10,30.63,30.20,5,1,16,0.00
2014-4-19,57.2,41.3,26.2,8.8,-9.9,-22.8,25,11,10,30.38,30.11,9,3,27,0.00
2014-4-20,65.3,42.9,23.0,7.4,-5.2,-24.6,26,14,10,30.47,30.27,4,1,11,0.00
2014-4-21,80.2,51.7,27.5,18.8,1.3,-11.2,25,13,10,30.27,29.77,4,1,12,0.00
2014-4-22,80.8,59.3,43.9,19.1,6.1,-8.3,21,12,10,29.77,29.41,4,1,13,0.04
2014-4-23,52.5,47.0,40.1,31.4,-1.4,-12.0,48,14,10,29.60,29.38,8,3,28,0.01
2014-4-24,54.3,45.0,36.3,-1.1,-8.3,-15.0,10,10,10,29.89,29.60,12,6,38,0.00
2014-4-25,67.8,49.6,28.8,9.3,-2.1,-14.6,24,12,10,29.97,29.75,7,1,16,0.00
2014-4-26,47.8,43.9,38.7,8.0,-5.5,-13.2,20,12,10,29.83,29.72,2,1,9,0.14
2014-4-27,56.8,44.4,37.0,28.1,2.1,-14.4,46,19,10,30.03,29.81,6,1,25,0.11
2014-4-28,59.9,49.2,35.1,11.8,2.6,-14.7,29,16,10,30.21,29.97,6,2,15,0.00
2014-4-29,58.8,46.4,39.7,11.7,0.3,-9.5,26,15,10,30.50,30.20,8,4,19,0.00
2014-4-30,48.6,41.2,38.1,13.7,0.2,-13.6,29,18,10,30.51,30.18,4,2,13,0.26
2014-5-1,71.4,49.2,38.3,33.6,3.0,-13.4,44,17,10,30.18,29.61,4,1,11,0.40
2014-5-2,68.4,52.9,37.8,38.6,0.6,-13.9,50,12,10,29.78,29.62,5,1,20,0.00
2014-5-3,72.5,52.0,35.4,17.2,-1.5,-15.7,20,11,10,29.81,29.68,5,1,14,0.02
2014-5-4,64.9,51.3,43.3,40.8,17.6,-9.0,82,34,10,31.40,29.46,5,2,20,0.06
2014-5-5,61.9,51.1,40.6,43.2,39.2,30.6,90,65,36,29.85,29.59,7,3,59,0.00
2014-5-6,64.0,49.1,34.5,41.7,27.8,8.0,97,52,12,30.03,29.82,7,2,18,0.00
2014-5-7,69.6,49.8,28.6,36.4,25.2,7.8,95,49,10,30.16,30.03,6,2,15,0.00
2014-5-8,78.4,55.6,30.6,38.7,27.0,10.0,91,44,10,30.18,30.03,6,1,12,0.00
2014-5-9,56.5,52.1,47.5,46.9,34.0,18.9,97,55,24,30.24,30.06,5,2,14,0.01
2014-5-10,82.0,60.7,47.7,65.3,51.8,41.9,97,77,28,30.06,29.68,3,1,9,0.07
2014-5-11,81.0,64.9,47.8,43.2,31.1,12.6,76,33,10,30.01,29.75,6,2,20,0.00
2014-5-12,88.9,65.9,39.6,47.7,35.5,19.9,94,43,10,30.10,29.96,5,2,22,0.00
2014-5-13,65.3,54.8,48.0,44.9,42.0,38.4,76,62,38,30.31,30.11,6,1,17,0.00
2014-5-14,79.7,60.3,48.0,47.3,41.7,35.0,88,54,21,30.31,30.19,4,1,14,0.00
2014-5-15,82.0,64.5,47.1,62.4,55.0,44.4,93,73,48,30.28,30.14,4,1,17,0.00
2014-5-16,74.7,65.3,60.8,63.7,61.3,59.2,99,87,61,30.17,29.93,5,2,16,0.24
2014-5-17,77.7,63.0,42.4,62.8,51.3,21.6,99,71,16,30.06,29.80,4,1,21,0.69
2014-5-18,72.1,55.9,38.1,48.5,30.8,8.6,98,49,10,30.12,30.01,5,2,22,0.18
2014-5-19,66.9,53.0,36.9,48.4,36.3,26.0,96,57,24,30.09,30.02,8,2,24,0.04
2014-5-20,79.9,58.0,39.9,50.4,38.6,17.3,98,58,10,30.03,29.93,9,2,21,0.01
2014-5-21,81.3,61.0,39.0,50.9,43.6,27.7,97,59,16,30.00,29.87,5,1,15,0.00
2014-5-22,73.4,57.9,46.0,57.1,51.0,45.0,97,80,47,29.95,29.85,3,1,13,0.08
2014-5-23,57.6,54.5,52.3,54.7,52.6,51.2,97,93,87,30.00,29.85,2,0,7,0.31
2014-5-24,74.7,57.6,50.7,57.8,52.4,46.8,98,85,42,30.05,29.96,6,1,14,0.41
2014-5-25,80.1,60.1,47.5,64.4,53.9,47.2,99,83,42,30.07,29.95,5,1,10,0.06
2014-5-26,80.1,63.5,48.4,61.2,53.7,47.2,99,75,36,29.97,29.77,4,1,14,0.00
2014-5-27,77.5,57.8,46.2,61.4,52.8,43.9,97,85,50,29.99,29.80,6,1,17,0.26
2014-5-28,55.9,49.4,42.3,48.0,45.3,40.9,98,86,67,30.23,29.95,4,2,12,0.02
2014-5-29,77.2,56.4,43.0,49.3,42.8,33.1,99,67,21,30.25,30.09,3,1,11,0.00
2014-5-30,74.5,56.7,41.2,59.0,47.6,37.9,98,75,28,30.12,29.98,4,1,10,0.15
2014-5-31,71.1,56.5,43.3,56.3,48.6,43.1,99,78,40,30.30,30.06,5,1,15,0.01
2014-6-1,83.3,61.5,38.3,55.1,44.5,32.2,99,62,19,30.34,30.19,3,1,11,0.00
2014-6-2,92.7,66.9,42.3,58.3,49.1,35.7,96,60,14,30.21,29.96,3,1,11,0.00
2014-6-3,86.2,68.8,50.4,62.0,52.2,36.9,97,61,19,30.01,29.89,5,2,15,0.00
2014-6-4,71.4,61.2,55.9,58.0,53.2,46.9,93,76,53,29.91,29.77,4,1,11,0.00
2014-6-5,70.5,60.1,54.0,59.8,55.9,52.7,96,86,63,29.80,29.67,3,0,9,0.01
2014-6-6,77.4,63.7,53.2,55.1,52.0,48.2,97,69,38,29.89,29.69,7,2,22,0.02
2014-6-7,88.3,68.3,48.9,58.5,51.0,40.9,98,60,19,29.95,29.87,5,2,15,0.00
2014-6-8,94.8,71.5,49.5,62.5,52.8,28.9,98,60,10,29.96,29.85,3,0,10,0.00
2014-6-9,90.1,69.9,56.1,66.6,60.0,49.5,96,75,27,29.97,29.90,3,0,10,0.06
2014-6-10,82.9,68.4,60.3,65.6,58.8,51.2,96,73,44,30.13,29.93,6,1,17,0.01
2014-6-11,78.3,63.5,45.9,56.3,51.8,45.1,97,70,32,30.19,30.12,4,1,14,0.01
2014-6-12,67.8,59.5,54.7,57.0,54.8,52.6,97,85,63,30.19,30.08,4,1,11,0.20
2014-6-13,61.0,58.4,56.8,59.1,56.9,55.7,97,95,89,30.08,29.82,6,2,15,0.41
2014-6-14,79.5,65.0,56.3,62.3,56.0,49.2,99,75,40,29.93,29.80,4,1,16,0.00
2014-6-15,77.4,64.2,52.5,56.9,49.5,42.5,91,61,31,30.08,29.91,7,3,24,0.00
2014-6-16,89.8,66.0,44.1,57.9,46.8,25.0,97,59,12,30.16,30.00,3,1,12,0.00
2014-6-17,96.1,73.6,55.9,67.4,59.1,53.9,94,64,26,30.05,29.81,3,1,11,0.00
2014-6-18,85.8,72.6,62.1,71.9,61.2,52.0,98,71,35,29.94,29.67,7,2,22,0.17
2014-6-19,80.2,67.1,52.0,62.1,46.4,17.1,97,57,10,30.00,29.93,7,2,19,0.00
2014-6-20,79.9,59.1,43.7,51.2,40.3,28.1,97,56,22,29.99,29.91,7,2,21,0.00
2014-6-21,75.7,57.3,39.9,50.0,42.0,35.8,98,63,26,29.98,29.88,6,2,17,0.00
2014-6-22,83.1,62.2,39.4,56.0,46.5,38.6,98,62,25,30.04,29.94,4,1,10,0.00
2014-6-23,90.0,66.2,45.5,57.9,50.0,43.5,97,64,21,30.14,30.05,4,1,12,0.00
2014-6-24,85.6,70.5,54.3,64.0,57.5,51.9,94,66,40,30.14,29.96,3,1,10,0.00
2014-6-25,87.8,72.7,63.3,71.1,64.0,55.6,99,76,46,29.96,29.85,3,1,9,0.97
2014-6-26,78.3,69.0,59.5,75.1,65.7,59.3,99,90,70,30.03,29.79,4,1,11,0.35
2014-6-27,89.2,69.0,57.4,64.1,57.3,44.0,99,73,22,30.21,30.03,4,1,11,0.01
2014-6-28,94.1,71.1,49.5,64.4,54.2,32.6,98,63,15,30.28,30.21,3,1,8,0.00
2014-6-29,94.1,72.2,50.2,65.3,57.6,49.0,96,65,28,30.27,30.05,4,1,10,0.00
2014-6-30,96.6,77.0,57.4,69.7,64.0,56.8,99,68,34,30.07,29.89,2,1,10,0.00
2014-7-1,97.3,80.0,62.4,73.3,68.5,61.9,99,71,38,29.91,29.74,4,1,11,0.00
2014-7-2,97.5,78.6,68.2,77.9,71.2,67.9,99,81,45,29.92,29.78,4,1,14,0.41
2014-7-3,95.5,77.0,65.7,74.9,69.8,65.3,99,81,46,30.01,29.88,4,1,14,0.61
2014-7-4,77.4,68.4,59.7,71.5,66.5,55.5,99,94,80,30.01,29.85,3,0,11,0.44
2014-7-5,83.8,67.9,58.1,56.5,47.1,35.0,93,52,22,30.00,29.79,9,3,32,0.02
2014-7-6,89.4,71.7,55.9,59.3,52.7,36.9,86,55,16,29.98,29.84,3,1,13,0.00
2014-7-7,88.9,74.0,57.2,72.7,63.8,55.8,98,73,43,29.85,29.66,4,1,11,0.14
2014-7-8,91.8,78.5,63.9,73.9,69.0,63.6,99,75,49,29.77,29.62,3,1,11,0.00
2014-7-9,92.1,75.9,64.0,69.8,64.6,56.1,98,72,34,29.94,29.63,6,1,20,0.27
2014-7-10,85.1,69.6,55.4,65.0,56.0,40.4,99,68,25,30.17,29.93,4,1,13,0.01
2014-7-11,88.7,68.1,50.4,61.1,54.7,48.0,98,68,30,30.26,30.16,2,0,8,0.00
2014-7-12,93.0,71.9,50.7,65.8,58.7,50.1,98,68,31,30.23,30.09,2,1,7,0.00
2014-7-13,87.1,73.6,60.3,71.5,66.0,59.6,98,79,45,30.10,29.85,4,1,13,0.06
2014-7-14,91.6,78.4,66.7,74.0,68.4,62.2,99,74,41,29.91,29.82,3,1,11,0.01
2014-7-15,89.2,75.9,69.6,75.5,71.0,67.8,98,86,59,29.86,29.74,4,1,10,0.54
2014-7-16,84.0,72.9,61.7,73.1,67.9,60.6,99,86,54,29.86,29.75,2,0,8,0.67
2014-7-17,84.6,68.0,55.4,64.4,56.6,46.9,99,71,27,30.08,29.85,3,1,12,0.00
2014-7-18,83.7,66.4,50.4,61.5,54.9,48.1,99,71,31,30.24,30.08,3,0,10,0.00
2014-7-19,82.9,68.2,51.1,64.4,58.4,49.5,99,74,32,30.29,30.22,2,0,8,0.00
2014-7-20,84.2,67.3,55.9,65.7,57.8,49.3,99,76,32,30.23,30.15,4,1,14,0.00
2014-7-21,90.1,68.7,51.3,63.8,58.0,51.0,99,73,31,30.22,30.12,3,1,7,0.00
2014-7-22,93.0,75.3,58.6,73.0,65.8,57.8,99,75,43,30.16,29.95,2,0,7,0.00
2014-7-23,96.4,78.0,63.1,75.3,69.0,62.9,99,77,44,29.96,29.71,5,1,21,0.52
2014-7-24,82.0,69.1,52.5,68.6,59.4,50.6,99,75,38,29.93,29.77,4,1,16,0.08
2014-7-25,82.2,65.6,47.8,65.2,55.3,47.4,99,74,38,29.99,29.91,3,1,12,0.00
2014-7-26,85.6,68.4,51.8,66.9,58.1,51.5,99,74,34,29.97,29.85,3,1,11,0.00
2014-7-27,81.0,67.5,54.5,73.6,64.1,54.0,99,90,71,29.88,29.65,2,0,8,0.51
2014-7-28,81.5,69.2,63.5,74.3,67.5,62.7,99,94,71,29.68,29.44,3,1,12,1.29
2014-7-29,77.5,65.4,53.2,63.1,54.8,46.8,99,72,36,29.96,29.54,3,1,14,0.00
2014-7-30,80.8,64.9,51.6,61.9,56.0,48.9,99,77,33,30.04,29.96,3,0,8,0.00
2014-7-31,81.1,65.2,51.1,66.9,59.2,50.8,99,83,53,30.16,30.04,3,0,14,0.17
2014-8-1,87.4,69.2,57.2,70.3,63.4,56.9,99,84,50,30.23,30.15,2,0,7,0.01
2014-8-2,82.8,69.9,57.6,69.0,63.4,56.9,99,82,46,30.23,30.13,3,0,8,0.00
2014-8-3,86.7,68.5,53.8,68.1,61.0,53.5,99,80,46,30.15,30.03,2,0,8,0.00
2014-8-4,85.5,71.7,59.9,69.0,64.1,59.3,99,80,46,30.06,29.98,4,0,9,0.01
2014-8-5,86.5,71.2,56.3,73.9,63.7,56.0,99,80,43,30.05,29.90,4,0,11,0.00
2014-8-6,79.7,69.7,55.8,66.8,59.4,51.8,99,73,40,29.91,29.80,5,1,15,0.04
2014-8-7,75.4,61.9,50.7,60.1,55.1,49.6,99,81,41,29.95,29.86,6,1,18,0.05
2014-8-8,79.5,65.6,50.9,62.1,55.2,50.5,99,73,37,30.05,29.94,6,1,21,0.00
2014-8-9,82.4,67.7,51.4,63.7,55.8,46.7,99,71,29,30.12,30.03,4,1,13,0.00
2014-8-10,88.7,68.8,51.4,65.8,57.4,45.0,99,73,28,30.15,30.07,5,1,12,0.15
2014-8-11,90.1,70.7,53.6,68.6,62.0,53.3,99,78,36,30.16,30.07,2,0,8,0.00
2014-8-12,83.8,70.4,56.7,66.7,61.6,56.4,99,77,40,30.14,30.03,4,1,16,0.00
2014-8-13,68.7,63.6,59.9,65.2,61.9,59.6,99,94,85,30.04,29.65,9,2,20,1.59
2014-8-14,73.0,62.5,50.0,70.7,54.0,46.7,99,77,42,29.88,29.66,4,1,15,0.01
2014-8-15,73.8,60.7,47.5,57.9,53.5,47.2,99,80,48,29.91,29.85,2,0,9,0.00
2014-8-16,79.2,64.4,50.7,58.8,55.4,49.6,99,75,36,29.94,29.88,2,0,9,0.00
2014-8-17,75.4,63.1,52.0,62.9,57.3,51.7,99,83,54,29.90,29.79,5,1,14,0.02
2014-8-18,73.0,60.2,49.5,57.5,50.6,45.4,99,74,40,29.89,29.79,7,2,21,0.00
2014-8-19,79.9,60.6,43.9,59.0,51.8,43.6,99,77,36,29.97,29.87,3,0,10,0.00
2014-8-20,83.1,64.0,45.9,63.6,55.6,45.6,99,78,39,30.07,29.97,2,0,7,0.00
2014-8-21,77.9,62.5,52.9,64.2,57.7,52.4,99,86,53,30.13,30.06,3,0,8,0.37
2014-8-22,71.2,62.7,56.3,64.3,59.6,56.0,99,90,73,30.15,30.10,3,0,11,0.15
2014-8-23,78.3,64.7,54.5,63.0,58.1,51.9,99,82,43,30.16,30.11,4,1,12,0.01
2014-8-24,81.3,64.9,50.5,64.8,57.3,50.3,99,80,39,30.17,30.10,4,1,10,0.00
2014-8-25,86.2,67.9,53.2,68.4,59.9,47.3,99,80,26,30.17,30.10,3,0,7,0.00
2014-8-26,86.7,69.0,53.4,68.5,61.6,53.2,99,81,41,30.17,30.00,2,0,9,0.00
2014-8-27,88.5,72.2,57.6,72.7,65.2,57.3,99,81,45,30.00,29.83,2,0,8,0.31
2014-8-28,73.6,65.3,54.3,66.1,55.3,44.7,99,73,37,30.01,29.82,6,2,18,0.00
2014-8-29,78.8,61.3,47.5,59.3,53.4,47.2,99,79,41,30.26,30.01,3,0,10,0.00
2014-8-30,77.9,62.8,48.6,62.0,56.3,48.3,99,82,49,30.28,30.08,4,1,14,0.00
2014-8-31,87.3,70.2,55.4,74.0,65.6,55.1,99,87,56,30.09,29.92,3,0,8,1.04
2014-9-1,88.5,72.5,62.1,73.3,67.6,61.8,99,87,49,29.99,29.90,2,0,6,0.01
2014-9-2,87.3,72.3,59.9,76.7,68.3,59.6,99,88,65,29.94,29.69,2,0,7,0.00
2014-9-3,80.6,69.3,55.9,71.3,60.8,53.2,99,78,39,30.08,29.70,5,1,17,0.05
2014-9-4,85.1,65.5,49.6,66.9,58.9,49.4,99,83,42,30.19,30.08,3,0,10,0.00
2014-9-5,88.7,71.8,56.1,72.4,65.8,55.9,99,84,51,30.15,29.94,4,1,11,0.00
2014-9-6,87.4,71.7,62.1,78.5,67.9,61.2,99,89,62,29.94,29.72,6,1,19,0.22
2014-9-7,73.0,62.4,50.2,61.6,52.4,43.8,99,74,37,30.23,29.92,5,1,14,0.01
2014-9-8,76.8,58.8,44.6,57.4,51.1,44.3,99,79,42,30.39,30.23,3,1,9,0.00
2014-9-9,71.6,55.3,41.2,56.7,48.1,40.9,99,81,42,30.40,30.23,4,1,12,0.00
2014-9-10,74.3,60.8,50.0,59.8,55.0,49.1,99,83,56,30.23,30.03,2,0,9,0.00
2014-9-11,72.1,63.7,54.1,68.0,61.3,53.4,99,92,72,30.03,29.73,4,1,11,0.01
2014-9-12,62.2,55.1,41.5,54.1,45.2,40.6,97,70,53,30.27,29.90,6,2,19,0.00
2014-9-13,57.2,50.0,38.3,53.3,47.1,38.0,99,91,65,30.30,30.11,3,0,8,0.19
2014-9-14,59.0,49.4,36.9,52.3,42.4,36.3,99,79,51,30.24,30.10,5,2,18,0.00
2014-9-15,66.0,48.7,33.6,47.7,41.1,33.4,99,80,37,30.24,30.07,4,0,12,0.00
2014-9-16,65.7,53.7,47.7,56.0,51.0,46.6,99,92,67,30.09,29.93,2,0,6,0.15
2014-9-17,71.2,53.2,41.2,53.5,47.7,40.9,99,85,42,30.02,29.92,2,0,8,0.01
2014-9-18,66.4,49.6,36.0,53.3,43.7,35.2,99,83,51,30.16,29.91,4,1,14,0.00
2014-9-19,58.1,41.8,28.6,40.9,32.0,18.8,99,75,24,30.39,30.16,4,1,11,0.00
2014-9-20,69.8,50.2,30.6,58.6,45.8,30.3,99,86,62,30.37,30.05,2,0,11,0.00
2014-9-21,78.6,64.9,50.2,70.4,62.2,49.6,99,92,69,30.06,29.55,3,0,14,0.01
2014-9-22,66.9,58.9,40.8,66.7,49.7,36.4,99,74,41,30.06,29.50,5,2,24,0.00
2014-9-23,69.6,51.9,36.3,50.3,42.5,34.5,99,73,41,30.42,30.06,4,1,15,0.00
2014-9-24,72.0,51.9,38.7,54.5,46.8,38.4,99,85,44,30.62,30.42,3,0,11,0.00
2014-9-25,68.5,52.3,41.5,54.6,48.6,41.3,99,89,56,30.55,30.25,2,0,7,0.00
2014-9-26,75.7,56.1,40.1,60.9,50.5,39.8,99,85,48,30.26,30.13,3,0,8,0.00
2014-9-27,81.5,61.8,45.5,64.9,55.0,45.2,99,83,44,30.18,30.12,4,1,10,0.00
2014-9-28,82.8,63.6,48.4,67.5,57.9,48.1,99,85,42,30.17,29.97,2,0,11,0.00
2014-9-29,75.6,61.6,52.9,65.1,57.1,52.6,99,87,57,30.05,29.95,4,1,14,0.00
2014-9-30,64.8,59.7,56.1,56.1,54.9,53.5,96,84,71,30.07,30.00,3,1,8,0.00
2014-10-1,60.6,57.7,54.9,57.5,55.0,52.9,97,91,81,30.15,30.03,3,0,11,0.01
2014-10-2,68.0,57.0,44.4,56.6,51.7,44.1,99,84,62,30.19,30.10,3,1,11,0.00
2014-10-3,67.8,52.3,39.2,53.2,46.2,38.9,99,83,44,30.17,29.91,4,1,11,0.00
2014-10-4,61.0,56.3,51.8,59.3,55.4,51.1,99,97,92,29.90,29.52,3,1,12,0.64
2014-10-5,59.9,50.5,35.4,58.2,43.6,31.5,99,81,36,29.92,29.52,3,1,14,0.01
2014-10-6,64.6,45.0,29.5,48.1,39.1,29.2,99,83,41,30.12,29.93,4,1,11,0.00
2014-10-7,73.8,57.4,42.4,64.8,53.9,42.2,99,89,68,30.12,29.94,4,1,14,0.12
2014-10-8,78.1,61.0,50.9,61.3,52.9,37.4,99,78,34,29.94,29.64,10,1,25,0.20
2014-10-9,69.3,49.9,37.9,41.8,37.5,27.7,94,67,21,29.94,29.81,3,1,14,0.00
2014-10-10,63.7,45.1,32.4,42.4,36.3,31.7,99,76,30,30.11,29.93,4,1,14,0.00
2014-10-11,69.4,43.1,33.8,45.8,38.1,33.0,99,86,31,30.12,30.02,2,0,6,0.00
2014-10-12,66.4,42.4,28.0,45.1,34.3,27.8,99,79,26,30.28,30.11,6,1,14,0.00
2014-10-13,60.3,44.4,26.2,50.2,39.5,25.8,99,85,58,30.33,30.20,2,0,8,0.00
2014-10-14,81.7,61.4,50.4,64.5,56.2,47.4,99,84,51,30.22,30.10,3,0,11,0.00
2014-10-15,79.7,67.4,57.2,68.6,63.2,56.7,99,87,66,30.11,29.96,2,0,8,0.00
2014-10-16,69.6,67.3,63.3,68.5,66.4,63.1,99,97,88,29.96,29.65,5,2,14,1.43
2014-10-17,76.1,60.1,49.1,62.7,54.9,45.9,99,86,38,29.66,29.57,3,1,11,0.06
2014-10-18,68.0,52.7,44.4,61.5,51.8,44.2,99,97,76,29.62,29.48,3,0,14,0.19
2014-10-19,52.2,44.6,38.1,49.4,33.9,24.1,97,67,42,29.92,29.56,7,3,23,0.01
2014-10-20,63.9,42.2,28.6,39.4,31.8,25.2,92,70,27,29.99,29.90,3,0,10,0.00
2014-10-21,51.8,47.1,41.7,48.3,45.2,39.3,99,93,86,30.03,29.94,4,1,11,0.06
2014-10-22,51.3,48.3,46.8,48.4,46.4,45.0,98,93,86,30.10,29.92,10,4,34,0.13
2014-10-23,50.9,48.8,46.8,49.1,47.4,45.3,99,95,90,29.93,29.70,8,4,24,0.79
2014-10-24,50.9,47.8,46.0,48.5,44.8,41.4,99,89,76,29.73,29.67,5,2,21,0.08
2014-10-25,71.6,49.8,34.0,48.9,41.2,33.2,99,77,27,29.73,29.45,3,1,12,0.02
2014-10-26,59.7,45.5,38.1,49.4,40.5,35.7,99,84,48,29.66,29.38,4,1,16,0.01
2014-10-27,59.0,44.6,33.8,39.8,37.0,32.5,97,77,44,29.99,29.65,5,1,17,0.00
2014-10-28,63.0,46.7,36.5,46.8,42.3,35.7,99,86,53,30.06,29.92,3,1,9,0.00
2014-10-29,55.9,49.2,40.6,54.5,48.4,40.4,99,97,89,29.92,29.77,1,0,4,0.09
2014-10-30,55.8,40.4,31.3,49.6,36.9,30.5,99,89,56,29.99,29.83,3,0,11,0.00
2014-10-31,53.8,41.6,32.4,42.9,36.4,30.8,99,84,49,30.04,29.96,2,0,7,0.01
2014-11-1,43.0,35.7,28.0,40.5,34.7,27.1,99,96,91,29.99,29.86,5,1,14,0.17
2014-11-2,40.1,37.3,34.2,36.2,23.9,8.8,97,61,10,29.88,29.66,9,4,30,0.01
2014-11-3,48.6,36.2,28.2,24.4,12.1,-6.5,78,42,10,30.03,29.78,6,2,23,0.00
2014-11-4,54.9,41.5,25.2,41.3,32.9,22.1,90,73,41,30.10,29.94,2,0,5,0.00
2014-11-5,61.3,44.4,29.8,45.3,34.7,23.6,95,74,26,30.08,29.89,3,0,14,0.00
2014-11-6,46.8,39.6,29.3,42.5,37.6,28.3,99,93,79,30.07,29.53,4,1,17,0.19
2014-11-7,45.3,39.8,35.1,42.0,33.7,23.0,99,80,61,29.74,29.44,7,3,21,0.06
2014-11-8,47.1,36.7,32.4,31.4,23.8,19.0,84,60,36,29.90,29.74,5,1,19,0.00
2014-11-9,54.0,39.0,25.3,36.3,31.3,24.3,96,76,41,29.97,29.80,2,0,9,0.00
2014-11-10,52.3,35.4,25.0,39.6,31.4,24.3,98,87,52,30.17,29.97,2,0,4,0.00
2014-11-11,59.5,41.8,25.5,47.8,38.4,25.3,99,89,63,30.16,29.93,3,0,10,0.00
2014-11-12,61.3,48.6,35.8,54.4,44.4,27.6,99,86,62,29.97,29.79,2,1,13,0.01
2014-11-13,46.0,37.1,26.2,34.2,26.6,19.6,95,68,35,30.03,29.91,4,1,17,0.00
2014-11-14,40.8,33.0,23.7,32.6,24.2,15.3,98,73,39,30.05,29.86,5,1,15,0.04
2014-11-15,36.9,25.1,0.0,27.2,15.8,5.1,94,71,27,30.29,29.28,4,1,14,0.00
2014-11-16,40.1,29.1,15.8,25.1,20.2,13.1,91,71,47,30.31,30.06,3,0,10,0.00
2014-11-17,34.7,33.2,29.5,34.1,31.1,23.8,99,92,65,30.07,29.41,3,0,9,0.78
2014-11-18,33.6,27.8,18.0,33.4,17.1,5.3,99,67,38,29.80,29.41,5,1,21,0.00
2014-11-19,34.5,23.6,16.5,15.4,10.5,5.9,81,58,31,30.05,29.80,4,1,13,0.00
2014-11-20,41.2,28.2,19.8,20.5,14.7,8.7,82,58,39,30.00,29.71,3,1,14,0.00
2014-11-21,31.1,21.6,12.2,14.0,9.5,2.5,79,60,35,30.33,29.84,6,2,21,0.00
2014-11-22,36.0,25.2,10.0,23.9,14.2,6.4,91,65,36,30.35,29.96,2,0,8,0.00
2014-11-23,57.7,42.1,33.3,43.2,36.0,23.7,95,80,56,30.12,29.96,3,0,10,0.00
2014-11-24,59.7,46.3,32.2,58.4,45.6,30.9,99,97,91,30.06,29.49,3,1,14,0.67
2014-11-25,57.7,49.1,31.8,53.9,35.7,24.2,90,63,32,30.09,29.60,4,1,18,0.00
2014-11-26,37.6,33.0,29.1,32.3,30.1,23.6,99,90,57,30.21,29.75,3,0,11,0.00
2014-11-27,32.2,31.0,28.8,31.9,30.7,28.3,99,99,98,29.81,29.73,0,0,0,0.00
2014-11-28,28.2,17.1,9.9,21.0,13.7,7.6,92,87,74,30.17,30.03,0,0,0,0.01
2014-11-29,27.5,14.7,3.2,21.7,11.9,0.8,93,88,76,30.29,30.16,0,0,0,0.02
2014-11-30,39.6,30.5,19.6,35.0,28.7,17.9,98,93,81,30.19,29.95,1,0,3,0.11
2014-12-1,47.3,36.6,31.5,42.2,32.6,20.1,99,86,62,30.44,29.93,5,1,16,0.09
2014-12-2,34.2,27.4,18.9,22.6,17.5,10.4,92,67,47,30.70,30.42,6,2,17,0.00
2014-12-3,35.6,31.8,24.4,34.5,30.7,22.5,99,96,92,30.42,29.82,4,1,17,0.08
2014-12-4,34.5,27.1,12.0,30.5,19.8,10.1,99,76,42,30.53,30.00,6,1,16,0.00
2014-12-5,30.7,20.2,6.8,24.2,14.7,4.6,93,80,57,30.67,30.44,3,1,8,0.00
2014-12-6,35.4,32.1,25.9,35.0,31.2,24.2,99,96,90,30.43,30.10,3,1,14,0.47
2014-12-7,33.8,22.7,4.8,31.2,12.1,0.5,90,65,38,30.70,30.24,7,2,20,0.01
2014-12-8,24.3,14.5,2.1,19.1,5.3,-4.5,87,69,28,30.76,30.51,4,1,10,0.00
2014-12-9,37.9,31.1,24.1,36.8,29.7,19.1,99,94,81,30.51,29.62,10,3,26,0.89
2014-12-10,37.8,35.3,33.3,37.2,34.9,33.0,99,99,93,29.63,29.41,4,1,11,0.48
2014-12-11,40.6,34.2,31.6,39.1,33.2,30.6,99,96,88,29.71,29.41,1,0,4,0.20
2014-12-12,37.8,31.7,27.5,31.3,27.9,24.5,97,86,71,29.85,29.71,5,1,17,0.05
2014-12-13,37.4,31.8,18.0,27.3,24.8,-29.3,84,76,10,29.83,29.75,18,3,21,0.00
2014-12-14,39.4,32.3,26.8,29.4,26.9,23.1,89,81,64,29.89,29.75,4,1,17,0.00
2014-12-15,37.9,29.1,19.8,27.6,23.9,18.8,98,82,59,30.13,29.88,4,1,14,0.00
2014-12-16,36.3,31.1,22.8,32.4,28.4,22.4,98,90,76,30.13,29.93,0,0,3,0.08
2014-12-17,43.2,35.6,32.7,40.8,34.9,32.0,99,97,88,29.93,29.67,1,0,5,0.53
2014-12-18,39.2,35.3,31.5,34.9,30.0,23.8,97,81,67,29.83,29.65,5,2,21,0.04
2014-12-19,31.5,27.4,18.7,24.9,20.8,16.4,93,76,66,30.13,29.82,7,2,23,0.00
2014-12-20,32.7,23.1,13.6,22.7,18.2,12.3,96,82,56,30.30,30.13,4,0,8,0.00
2014-12-21,34.9,29.1,25.7,28.3,24.8,21.1,93,84,70,30.34,30.26,3,1,9,0.00
2014-12-22,38.3,32.5,28.6,32.2,28.7,26.3,97,86,66,30.38,30.27,3,0,8,0.00
2014-12-23,36.0,34.4,32.7,35.5,33.7,32.0,99,97,93,30.30,30.17,3,1,10,0.45
2014-12-24,37.9,35.9,34.3,37.2,35.4,33.3,99,98,96,30.17,29.55,3,0,13,0.47
2014-12-25,50.0,38.9,34.2,40.7,32.8,28.0,97,80,58,29.88,29.38,4,2,14,0.11
2014-12-26,45.9,36.7,26.1,31.6,28.5,25.3,99,74,53,30.12,29.89,4,1,15,0.00
2014-12-27,46.4,33.9,25.7,36.9,30.6,25.5,99,89,58,30.16,29.93,2,0,11,0.00
2014-12-28,46.9,38.9,33.6,44.3,34.2,25.2,99,84,66,29.94,29.69,4,1,14,0.15
2014-12-29,36.3,27.2,18.0,27.5,17.5,5.7,95,68,43,30.20,29.92,5,1,15,0.00
2014-12-30,25.0,15.5,5.4,7.2,0.6,-11.6,82,54,22,30.31,30.19,4,1,16,0.00
2014-12-31,26.4,12.4,3.4,12.4,3.8,-1.7,89,71,34,30.25,30.02,5,1,19,0.00
2015-1-1,30.9,19.4,6.3,13.9,8.8,3.2,89,65,40,30.02,29.80,4,1,12,0.00
2015-1-2,35.2,23.1,14.0,22.2,12.2,5.1,87,65,34,30.41,29.83,6,2,27,0.00